EYPA/PLQ METAR and TAF weather

Enter ICAO airport designator
Station Type Date Time Source
EYPA METAR 2021/04/13 23:20 UTC NOAA

EYPA 132320Z AUTO 30003KT 230V360 9999 OVC010/// 04/02 Q1022


Station Type Date Time Source
EYPA Decoded METAR 2021/04/13 23:20 UTC NOAA

Palanga Intl., Lithuania (EYPA) 55-55-12N 021-03E
Apr 13, 2021 - 07:20 PM EDT / 2021.04.13 2320 UTC
Wind: from the WNW (300 degrees) at 3 MPH (3 KT) (direction variable):0
Visibility: greater than 7 mile(s):0
Sky conditions: overcast
Temperature: 39 F (4 C)
Dew Point: 35 F (2 C)
Relative Humidity: 86%
Pressure (altimeter): 30.18 in. Hg (1022 hPa)
ob: EYPA 132320Z AUTO 30003KT 230V360 9999 OVC010/// 04/02 Q1022
cycle: 23

Station Type Date Time Source
EYPA TAF 2021/04/13 18:03 UTC NOAA

TAF TAF EYPA 131700Z 1318/1418 VRB05KT 8000 BKN010
TEMPO 1318/1321 BKN005
TEMPO 1321/1406 3000 BR BKN002

Example: see airport list